Time;durP1;ratioP1;P1;durP2;ratioP2;P2;SDS_P1;SDS_P2;PMS_P1;PMS_P2;Temp;Humidity;BMP_temperature;BMP_pressure;BME280_temperature;BME280_humidity;BME280_pressure;Samples;Min_cycle;Max_cycle;Signal;HPM_P1;HPM_P2
2022/03/24 00:00:37;;;;;;;;;;;;;;;;;;5107347;28;19931;-69
2022/03/24 00:03:04;;;;;;;;;;;;;;;;;;5106406;28;19924;-70
2022/03/24 00:05:31;;;;;;;;;;;;;;;;;;5109862;28;19924;-70
2022/03/24 00:07:58;;;;;;;;;;;;;;;;;;5110688;28;19930;-70
2022/03/24 00:10:29;;;;;;;;;;;;;;;;;;5099833;28;20297;-70
2022/03/24 00:12:56;;;;;;;;;;;;;;;;;;5111224;28;19945;-70
2022/03/24 00:15:23;;;;;;;;;;;;;;;;;;5109954;28;19928;-70
2022/03/24 00:17:50;;;;;;;;;;;;;;;;;;5110119;28;19924;-69
2022/03/24 00:20:17;;;;;;;;;;;;;;;;;;5107514;28;19946;-70
2022/03/24 00:22:44;;;;;;;;;;;;;;;;;;5108882;28;19975;-69
2022/03/24 00:25:11;;;;;;;;;;;;;;;;;;5107986;28;20050;-69
2022/03/24 00:27:39;;;;;;;;;;;;;;;;;;5109903;28;20287;-69
2022/03/24 00:30:08;;;;;;;;;;;;;;;;;;5103090;28;19931;-69
2022/03/24 00:32:34;;;;;;;;;;;;;;;;;;5109868;28;19924;-69
2022/03/24 00:35:01;;;;;;;;;;;;;;;;;;5106830;28;19934;-69
2022/03/24 00:37:29;;;;;;;;;;;;;;;;;;5110607;28;19932;-69
2022/03/24 00:39:56;;;;;;;;;;;;;;;;;;5109609;28;20006;-69
2022/03/24 00:42:23;;;;;;;;;;;;;;;;;;5109324;28;20023;-69
2022/03/24 00:44:51;;;;;;;;;;;;;;;;;;5108813;28;20015;-69
2022/03/24 00:47:18;;;;;;;;;;;;;;;;;;5109417;28;19982;-69
2022/03/24 00:49:47;;;;;;;;;;;;;;;;;;5109791;28;19924;-68
2022/03/24 00:52:14;;;;;;;;;;;;;;;;;;5109971;28;19939;-69
2022/03/24 00:54:41;;;;;;;;;;;;;;;;;;5110783;28;20298;-70
2022/03/24 00:57:08;;;;;;;;;;;;;;;;;;5110221;28;19935;-70
2022/03/24 00:59:34;;;;;;;;;;;;;;;;;;5110110;28;19930;-69
2022/03/24 01:02:01;;;;;;;;;;;;;;;;;;5111144;28;19943;-69
2022/03/24 01:04:30;;;;;;;;;;;;;;;;;;5108969;28;19930;-69
2022/03/24 01:06:57;;;;;;;;;;;;;;;;;;5108588;28;20002;-69
2022/03/24 01:09:24;;;;;;;;;;;;;;;;;;5106136;28;20332;-70
2022/03/24 01:11:51;;;;;;;;;;;;;;;;;;5109868;28;20010;-69
2022/03/24 01:14:18;;;;;;;;;;;;;;;;;;5108718;28;19931;-69
2022/03/24 01:16:45;;;;;;;;;;;;;;;;;;5108941;28;19931;-69
2022/03/24 01:19:14;;;;;;;;;;;;;;;;;;5114410;28;19931;-69
2022/03/24 01:21:41;;;;;;;;;;;;;;;;;;5114026;28;19932;-70
2022/03/24 01:24:09;;;;;;;;;;;;;;;;;;5112262;28;20024;-70
2022/03/24 01:26:36;;;;;;;;;;;;;;;;;;5112545;28;19931;-70
2022/03/24 01:29:03;;;;;;;;;;;;;;;;;;5113728;28;19924;-69
2022/03/24 01:31:31;;;;;;;;;;;;;;;;;;5110677;28;19924;-69
2022/03/24 01:33:58;;;;;;;;;;;;;;;;;;5114602;28;19924;-70
2022/03/24 01:36:24;;;;;;;;;;;;;;;;;;5110214;28;19931;-69
2022/03/24 01:38:51;;;;;;;;;;;;;;;;;;5112314;27;19950;-72
2022/03/24 01:41:22;;;;;;;;;;;;;;;;;;5112994;28;19946;-69
2022/03/24 01:43:49;;;;;;;;;;;;;;;;;;5113520;28;19930;-69
2022/03/24 01:46:16;;;;;;;;;;;;;;;;;;5111474;28;20023;-70
2022/03/24 01:48:44;;;;;;;;;;;;;;;;;;5112359;28;19963;-71
2022/03/24 01:51:11;;;;;;;;;;;;;;;;;;5111922;28;20441;-70
2022/03/24 01:53:38;;;;;;;;;;;;;;;;;;5110926;28;19932;-70
2022/03/24 01:56:07;;;;;;;;;;;;;;;;;;5112883;27;19946;-68
2022/03/24 01:58:34;;;;;;;;;;;;;;;;;;5110582;28;20011;-70
2022/03/24 02:01:01;;;;;;;;;;;;;;;;;;5110824;28;19924;-70
2022/03/24 02:03:28;;;;;;;;;;;;;;;;;;5112642;27;19924;-69
2022/03/24 02:05:55;;;;;;;;;;;;;;;;;;5110923;28;19924;-70
2022/03/24 02:08:22;;;;;;;;;;;;;;;;;;5111696;28;19928;-69
2022/03/24 02:10:49;;;;;;;;;;;;;;;;;;5109780;28;20418;-70
2022/03/24 02:13:16;;;;;;;;;;;;;;;;;;5114455;28;19942;-70
2022/03/24 02:15:43;;;;;;;;;;;;;;;;;;5112994;28;19931;-70
2022/03/24 02:18:10;;;;;;;;;;;;;;;;;;5112245;28;19924;-70
2022/03/24 02:20:37;;;;;;;;;;;;;;;;;;5111823;28;19924;-70
2022/03/24 02:23:03;;;;;;;;;;;;;;;;;;5112108;28;19931;-70
2022/03/24 02:25:33;;;;;;;;;;;;;;;;;;5109356;28;19930;-70
2022/03/24 02:28:01;;;;;;;;;;;;;;;;;;5101664;28;20447;-70
2022/03/24 02:30:29;;;;;;;;;;;;;;;;;;5109068;28;20391;-70
2022/03/24 02:32:56;;;;;;;;;;;;;;;;;;5113196;28;19985;-70
2022/03/24 02:35:23;;;;;;;;;;;;;;;;;;5109853;28;19939;-70
2022/03/24 02:37:49;;;;;;;;;;;;;;;;;;5111298;28;19927;-70
2022/03/24 02:40:16;;;;;;;;;;;;;;;;;;5109386;28;19934;-70
2022/03/24 02:42:45;;;;;;;;;;;;;;;;;;5110690;27;20015;-70
2022/03/24 02:45:13;;;;;;;;;;;;;;;;;;5110578;27;19974;-70
2022/03/24 02:47:40;;;;;;;;;;;;;;;;;;5109587;28;19924;-70
2022/03/24 02:50:07;;;;;;;;;;;;;;;;;;5110599;28;19931;-70
2022/03/24 02:52:34;;;;;;;;;;;;;;;;;;5108732;28;20010;-70
2022/03/24 02:55:01;;;;;;;;;;;;;;;;;;5108953;28;19930;-70
2022/03/24 02:57:28;;;;;;;;;;;;;;;;;;5111444;28;19967;-70
2022/03/24 02:59:55;;;;;;;;;;;;;;;;;;5106468;28;20405;-69
2022/03/24 03:02:29;;;;;;;;;;;;;;;;;;5110860;28;19930;-72
2022/03/24 03:04:56;;;;;;;;;;;;;;;;;;5110223;28;19924;-71
2022/03/24 03:07:28;;;;;;;;;;;;;;;;;;5112570;28;19923;-70
2022/03/24 03:09:55;;;;;;;;;;;;;;;;;;5107747;28;19938;-70
2022/03/24 03:12:22;;;;;;;;;;;;;;;;;;5111602;28;20015;-70
2022/03/24 03:14:49;;;;;;;;;;;;;;;;;;5107428;28;19938;-70
2022/03/24 03:17:16;;;;;;;;;;;;;;;;;;5111221;28;19923;-70
2022/03/24 03:19:45;;;;;;;;;;;;;;;;;;5106684;28;20031;-70
2022/03/24 03:22:12;;;;;;;;;;;;;;;;;;5111508;28;19924;-70
2022/03/24 03:24:40;;;;;;;;;;;;;;;;;;5108410;28;19928;-69
2022/03/24 03:27:07;;;;;;;;;;;;;;;;;;5111279;28;19976;-70
2022/03/24 03:29:34;;;;;;;;;;;;;;;;;;5108320;28;19939;-69
2022/03/24 03:32:02;;;;;;;;;;;;;;;;;;5111071;27;19930;-70
2022/03/24 03:34:29;;;;;;;;;;;;;;;;;;5108546;27;19923;-71
2022/03/24 03:36:56;;;;;;;;;;;;;;;;;;5110744;28;20264;-72
2022/03/24 03:39:23;;;;;;;;;;;;;;;;;;5110313;28;20313;-71
2022/03/24 03:41:50;;;;;;;;;;;;;;;;;;5110054;28;19928;-70
2022/03/24 03:44:17;;;;;;;;;;;;;;;;;;5111002;28;19924;-71
2022/03/24 03:46:44;;;;;;;;;;;;;;;;;;5107012;27;20298;-71
2022/03/24 03:49:11;;;;;;;;;;;;;;;;;;5109966;28;19924;-71
2022/03/24 03:51:38;;;;;;;;;;;;;;;;;;5105896;28;19923;-68
2022/03/24 03:54:05;;;;;;;;;;;;;;;;;;5111430;28;19927;-70
2022/03/24 03:56:32;;;;;;;;;;;;;;;;;;5107887;28;19923;-71
2022/03/24 03:58:59;;;;;;;;;;;;;;;;;;5110042;28;19923;-69
2022/03/24 04:01:26;;;;;;;;;;;;;;;;;;5108311;28;20347;-70
2022/03/24 04:03:53;;;;;;;;;;;;;;;;;;5109329;28;19930;-69
2022/03/24 04:06:24;;;;;;;;;;;;;;;;;;5102087;28;19924;-73
2022/03/24 04:08:52;;;;;;;;;;;;;;;;;;5098026;28;19924;-70
2022/03/24 04:11:19;;;;;;;;;;;;;;;;;;5108095;28;19930;-70
2022/03/24 04:13:46;;;;;;;;;;;;;;;;;;5111203;28;19928;-70
2022/03/24 04:16:13;;;;;;;;;;;;;;;;;;5109796;28;19931;-70
2022/03/24 04:18:40;;;;;;;;;;;;;;;;;;5109950;28;19924;-70
2022/03/24 04:21:07;;;;;;;;;;;;;;;;;;5106842;28;20035;-70
2022/03/24 04:23:34;;;;;;;;;;;;;;;;;;5106123;28;19998;-69
2022/03/24 04:26:01;;;;;;;;;;;;;;;;;;5109079;28;19935;-70
2022/03/24 04:28:28;;;;;;;;;;;;;;;;;;5110653;28;19923;-70
2022/03/24 04:30:55;;;;;;;;;;;;;;;;;;5105473;28;19985;-70
2022/03/24 04:33:23;;;;;;;;;;;;;;;;;;5109484;28;19924;-70
2022/03/24 04:35:50;;;;;;;;;;;;;;;;;;5107555;28;20305;-70
2022/03/24 04:38:17;;;;;;;;;;;;;;;;;;5109809;28;19963;-69
2022/03/24 04:40:44;;;;;;;;;;;;;;;;;;5110117;28;20022;-69
2022/03/24 04:43:11;;;;;;;;;;;;;;;;;;5109471;28;19924;-69
2022/03/24 04:45:38;;;;;;;;;;;;;;;;;;5105253;28;19932;-69
2022/03/24 04:48:05;;;;;;;;;;;;;;;;;;5108785;28;20297;-69
2022/03/24 04:50:31;;;;;;;;;;;;;;;;;;5112927;28;19930;-70
2022/03/24 04:52:59;;;;;;;;;;;;;;;;;;5113749;28;19924;-70
2022/03/24 04:55:26;;;;;;;;;;;;;;;;;;5109541;28;19923;-70
2022/03/24 04:57:53;;;;;;;;;;;;;;;;;;5113928;28;19924;-70
2022/03/24 05:00:20;;;;;;;;;;;;;;;;;;5109877;28;20006;-70
2022/03/24 05:02:47;;;;;;;;;;;;;;;;;;5114326;27;19923;-70
2022/03/24 05:05:15;;;;;;;;;;;;;;;;;;5107046;28;19934;-70
2022/03/24 05:07:42;;;;;;;;;;;;;;;;;;5113166;28;19936;-70
2022/03/24 05:10:09;;;;;;;;;;;;;;;;;;5111708;28;19946;-71
2022/03/24 05:12:36;;;;;;;;;;;;;;;;;;5116832;28;20319;-70
2022/03/24 05:15:04;;;;;;;;;;;;;;;;;;5110234;27;20382;-71
2022/03/24 05:17:31;;;;;;;;;;;;;;;;;;5114045;28;20349;-70
2022/03/24 05:19:58;;;;;;;;;;;;;;;;;;5112470;27;19931;-70
2022/03/24 05:22:26;;;;;;;;;;;;;;;;;;5112124;28;19930;-71
2022/03/24 05:24:53;;;;;;;;;;;;;;;;;;5112710;27;20386;-71
2022/03/24 05:27:22;;;;;;;;;;;;;;;;;;5110222;28;19930;-71
2022/03/24 05:29:49;;;;;;;;;;;;;;;;;;5111848;28;19935;-70
2022/03/24 05:32:16;;;;;;;;;;;;;;;;;;5111348;28;19923;-70
2022/03/24 05:34:44;;;;;;;;;;;;;;;;;;5112479;28;19930;-70
2022/03/24 05:37:11;;;;;;;;;;;;;;;;;;5110605;28;19923;-71
2022/03/24 05:39:38;;;;;;;;;;;;;;;;;;5110802;28;20264;-70
2022/03/24 05:42:08;;;;;;;;;;;;;;;;;;5112472;28;19984;-72
2022/03/24 05:44:35;;;;;;;;;;;;;;;;;;5111738;28;20026;-70
2022/03/24 05:47:02;;;;;;;;;;;;;;;;;;5111309;28;19930;-70
2022/03/24 05:49:29;;;;;;;;;;;;;;;;;;5111148;27;20394;-70
2022/03/24 05:51:56;;;;;;;;;;;;;;;;;;5112211;27;20022;-70
2022/03/24 05:54:23;;;;;;;;;;;;;;;;;;5112835;28;19923;-70
2022/03/24 05:56:50;;;;;;;;;;;;;;;;;;5109981;28;19930;-70
2022/03/24 05:59:17;;;;;;;;;;;;;;;;;;5109890;28;19923;-72
2022/03/24 06:01:44;;;;;;;;;;;;;;;;;;5107499;28;20306;-71
2022/03/24 06:04:13;;;;;;;;;;;;;;;;;;5111190;28;20423;-71
2022/03/24 06:06:40;;;;;;;;;;;;;;;;;;5110110;27;19928;-71
2022/03/24 06:09:07;;;;;;;;;;;;;;;;;;5109973;28;20026;-70
2022/03/24 06:11:35;;;;;;;;;;;;;;;;;;5109512;27;19924;-71
2022/03/24 06:14:01;;;;;;;;;;;;;;;;;;5112594;27;19930;-69
2022/03/24 06:16:28;;;;;;;;;;;;;;;;;;5111320;28;19924;-69
2022/03/24 06:18:56;;;;;;;;;;;;;;;;;;5111955;27;19930;-74
2022/03/24 06:21:24;;;;;;;;;;;;;;;;;;5106736;27;19928;-69
2022/03/24 06:23:51;;;;;;;;;;;;;;;;;;5110103;27;19928;-70
2022/03/24 06:26:19;;;;;;;;;;;;;;;;;;5112484;27;20367;-70
2022/03/24 06:28:46;;;;;;;;;;;;;;;;;;5117276;27;19936;-70
2022/03/24 06:31:13;;;;;;;;;;;;;;;;;;5107964;27;19924;-70
2022/03/24 06:33:40;;;;;;;;;;;;;;;;;;5107962;27;19931;-70
2022/03/24 06:36:08;;;;;;;;;;;;;;;;;;5108836;27;20390;-69
2022/03/24 06:38:35;;;;;;;;;;;;;;;;;;5113552;27;20352;-68
2022/03/24 06:41:04;;;;;;;;;;;5.40;99.90;;;;;;5111244;27;19923;-68
2022/03/24 06:43:31;;;;;;;;;;;5.10;99.90;;;;;;5108662;27;19969;-68
2022/03/24 06:45:58;;;;;;;;;;;5.00;99.90;;;;;;5107608;27;19924;-69
2022/03/24 06:48:25;;;;;;;;;;;;;;;;;;5111334;27;20038;-70
2022/03/24 06:50:52;;;;;;;;;;;5.00;99.90;;;;;;5113452;27;19932;-67
2022/03/24 06:53:19;;;;;;;;;;;;;;;;;;5118728;27;19931;-69
2022/03/24 06:55:46;;;;;;;;;;;;;;;;;;5106654;28;19934;-69
2022/03/24 06:58:13;;;;;;;;;;;;;;;;;;5111526;27;19975;-69
2022/03/24 07:00:40;;;;;;;;;;;;;;;;;;5110480;27;19930;-69
2022/03/24 07:03:07;;;;;;;;;;;;;;;;;;5110886;27;20336;-69
2022/03/24 07:05:35;;;;;;;;;;;;;;;;;;5107365;27;20417;-68
2022/03/24 07:08:03;;;;;;;;;;;;;;;;;;5107665;27;19923;-69
2022/03/24 07:10:30;;;;;;;;;;;;;;;;;;5105061;27;19931;-69
2022/03/24 07:12:57;;;;;;;;;;;;;;;;;;5111231;28;20401;-68
2022/03/24 07:15:26;;;;;;;;;;;;;;;;;;5107555;28;20000;-69
2022/03/24 07:17:53;;;;;;;;;;;;;;;;;;5101069;27;19976;-68
2022/03/24 07:20:21;;;;;;;;;;;;;;;;;;5109684;27;19924;-68
2022/03/24 07:22:48;;;;;;;;;;;;;;;;;;5110702;28;19924;-68
2022/03/24 07:25:16;;;;;;;;;;;6.60;99.90;;;;;;5108137;27;19927;-68
2022/03/24 07:27:44;;;;;;;;;;;;;;;;;;5113698;27;20323;-68
2022/03/24 07:30:11;;;;;;;;;;;;;;;;;;5107670;27;19950;-68
2022/03/24 07:32:38;;;;;;;;;;;;;;;;;;5122055;27;19923;-68
2022/03/24 07:35:05;;;;;;;;;;;;;;;;;;5107078;27;20301;-68
2022/03/24 07:37:32;;;;;;;;;;;;;;;;;;5096773;27;19932;-69
2022/03/24 07:39:59;;;;;;;;;;;;;;;;;;5095224;27;19996;-68
2022/03/24 07:42:26;;;;;;;;;;;;;;;;;;5109297;27;19931;-67
2022/03/24 07:44:54;;;;;;;;;;;13.20;99.90;;;;;;5107415;27;19938;-67
2022/03/24 07:47:20;;;;;;;;;;;15.20;90.50;;;;;;5109525;27;20301;-67
2022/03/24 07:49:47;;;;;;;;;;;16.70;74.80;;;;;;5104325;27;19932;-68
2022/03/24 07:52:14;;;;;;;;;;;;;;;;;;5113121;27;19924;-68
2022/03/24 07:54:46;;;;;;;;;;;17.90;57.90;;;;;;5098822;27;19924;-68
2022/03/24 07:57:12;;;;;;;;;;;18.50;55.70;;;;;;5104545;27;19930;-68
2022/03/24 07:59:39;;;;;;;;;;;;;;;;;;5105387;27;19924;-68
2022/03/24 08:02:08;;;;;;;;;;;19.10;50.60;;;;;;5106918;27;19938;-66
2022/03/24 08:04:35;;;;;;;;;;;19.70;49.60;;;;;;5088029;27;20033;-67
2022/03/24 08:07:01;;;;;;;;;;;20.50;44.50;;;;;;5097979;28;19931;-67
2022/03/24 08:09:31;;;;;;;;;;;21.00;41.60;;;;;;5096724;27;19965;-67
2022/03/24 08:11:58;;;;;;;;;;;20.50;46.40;;;;;;5107323;28;20321;-66
2022/03/24 08:14:25;;;;;;;;;;;20.40;46.70;;;;;;5101458;28;20392;-66
2022/03/24 08:16:52;;;;;;;;;;;21.20;45.50;;;;;;5107671;28;20271;-66
2022/03/24 08:19:19;;;;;;;;;;;21.40;44.60;;;;;;5109202;28;19934;-66
2022/03/24 08:21:46;;;;;;;;;;;22.10;43.40;;;;;;5105781;28;19923;-67
2022/03/24 08:24:13;;;;;;;;;;;;;;;;;;5113595;28;20006;-69
2022/03/24 08:26:40;;;;;;;;;;;;;;;;;;5113133;27;20301;-68
2022/03/24 08:29:07;;;;;;;;;;;;;;;;;;5111711;27;20297;-67
2022/03/24 08:31:34;;;;;;;;;;;;;;;;;;5110498;28;19969;-67
2022/03/24 08:34:01;;;;;;;;;;;;;;;;;;5113148;27;19938;-67
2022/03/24 08:36:28;;;;;;;;;;;;;;;;;;5110799;27;19923;-67
2022/03/24 08:38:56;;;;;;;;;;;;;;;;;;5114306;27;20035;-67
2022/03/24 08:41:23;;;;;;;;;;;;;;;;;;5109778;27;19924;-68
2022/03/24 08:43:50;;;;;;;;;;;;;;;;;;5115094;27;19934;-69
2022/03/24 08:46:19;;;;;;;;;;;;;;;;;;5114880;27;19938;-68
2022/03/24 08:48:46;;;;;;;;;;;;;;;;;;5121657;27;20010;-68
2022/03/24 08:51:15;;;;;;;;;;;23.70;47.80;;;;;;5107512;27;19962;-68
2022/03/24 08:53:42;;;;;;;;;;;;;;;;;;5113324;27;19928;-68
2022/03/24 08:56:10;;;;;;;;;;;;;;;;;;5111254;27;19924;-68
2022/03/24 08:58:37;;;;;;;;;;;;;;;;;;5112513;27;19927;-69
2022/03/24 09:01:04;;;;;;;;;;;;;;;;;;5105893;27;19924;-67
2022/03/24 09:03:31;;;;;;;;;;;;;;;;;;5119205;27;19931;-67
2022/03/24 09:05:58;;;;;;;;;;;;;;;;;;5109018;27;20022;-67
2022/03/24 09:08:25;;;;;;;;;;;;;;;;;;5119330;27;20305;-67
2022/03/24 09:10:52;;;;;;;;;;;;;;;;;;5111861;27;19923;-68
2022/03/24 09:13:19;;;;;;;;;;;;;;;;;;5130110;27;19923;-68
2022/03/24 09:15:46;;;;;;;;;;;;;;;;;;5111779;27;20011;-68
2022/03/24 09:18:13;;;;;;;;;;;;;;;;;;5105701;27;19946;-68
2022/03/24 09:20:40;;;;;;;;;;;;;;;;;;5107268;27;19976;-68
2022/03/24 09:23:08;;;;;;;;;;;;;;;;;;5109229;27;19924;-67
2022/03/24 09:25:38;;;;;;;;;;;;;;;;;;5111690;27;20422;-67
2022/03/24 09:28:04;;;;;;;;;;;;;;;;;;5111293;27;19972;-67
2022/03/24 09:30:31;;;;;;;;;;;;;;;;;;5111737;27;20246;-67
2022/03/24 09:32:58;;;;;;;;;;;;;;;;;;5110539;27;20416;-66
2022/03/24 09:35:25;;;;;;;;;;;;;;;;;;5112137;27;20286;-67
2022/03/24 09:37:52;;;;;;;;;;;;;;;;;;5108228;27;20079;-67
2022/03/24 09:40:19;;;;;;;;;;;;;;;;;;5106897;27;20293;-67
2022/03/24 09:42:46;;;;;;;;;;;;;;;;;;5115770;27;19935;-66
2022/03/24 09:45:14;;;;;;;;;;;;;;;;;;5110550;27;20030;-67
2022/03/24 09:47:41;;;;;;;;;;;;;;;;;;5110564;27;19947;-66
2022/03/24 09:50:09;;;;;;;;;;;;;;;;;;5111052;28;20010;-68
2022/03/24 09:52:36;;;;;;;;;;;;;;;;;;5112662;27;19923;-68
2022/03/24 09:55:03;;;;;;;;;;;;;;;;;;5108839;27;20365;-68
2022/03/24 09:57:30;;;;;;;;;;;;;;;;;;5112491;27;20417;-68
2022/03/24 09:59:57;;;;;;;;;;;;;;;;;;5111475;27;19924;-68
2022/03/24 10:02:24;;;;;;;;;;;;;;;;;;5112494;27;19928;-67
2022/03/24 10:04:51;;;;;;;;;;;;;;;;;;5111236;27;20029;-68
2022/03/24 10:07:18;;;;;;;;;;;;;;;;;;5110208;27;20015;-68
2022/03/24 10:09:45;;;;;;;;;;;;;;;;;;5106850;27;20015;-68
2022/03/24 10:12:12;;;;;;;;;;;;;;;;;;5111619;27;20334;-68
2022/03/24 10:14:39;;;;;;;;;;;;;;;;;;5111875;27;19924;-68
2022/03/24 10:17:06;;;;;;;;;;;;;;;;;;5102353;27;19924;-68
2022/03/24 10:19:32;;;;;;;;;;;;;;;;;;5112102;27;19959;-67
2022/03/24 10:21:59;;;;;;;;;;;;;;;;;;5106371;27;19924;-66
2022/03/24 10:24:26;;;;;;;;;;;;;;;;;;5108534;27;20018;-67
2022/03/24 10:26:55;;;;;;;;;;;;;;;;;;5109246;27;19928;-68
2022/03/24 10:29:22;;;;;;;;;;;;;;;;;;5111360;28;19923;-67
2022/03/24 10:31:49;;;;;;;;;;;;;;;;;;5109719;27;19959;-67
2022/03/24 10:34:16;;;;;;;;;;;;;;;;;;5111425;28;19923;-68
2022/03/24 10:36:43;;;;;;;;;;;;;;;;;;5110552;27;19924;-67
2022/03/24 10:39:10;;;;;;;;;;;;;;;;;;5103671;27;19924;-67
2022/03/24 10:41:37;;;;;;;;;;;;;;;;;;5109931;27;19924;-67
2022/03/24 10:44:04;;;;;;;;;;;;;;;;;;5114549;27;19930;-68
2022/03/24 10:46:31;;;;;;;;;;;;;;;;;;5101515;27;19932;-67
2022/03/24 10:48:58;;;;;;;;;;;;;;;;;;5110538;27;19924;-67
2022/03/24 10:51:25;;;;;;;;;;;;;;;;;;5111057;27;19932;-66
2022/03/24 10:53:52;;;;;;;;;;;;;;;;;;5107024;27;20302;-67
2022/03/24 10:56:19;;;;;;;;;;;;;;;;;;5118541;27;19930;-68
2022/03/24 10:58:46;;;;;;;;;;;;;;;;;;5111947;27;19930;-68
2022/03/24 11:01:13;;;;;;;;;;;;;;;;;;5111225;27;19978;-69
2022/03/24 11:03:41;;;;;;;;;;;;;;;;;;5109743;28;20395;-69
2022/03/24 11:06:08;;;;;;;;;;;;;;;;;;5108377;27;20014;-65
2022/03/24 11:08:35;;;;;;;;;;;;;;;;;;5109667;27;20409;-66
2022/03/24 11:11:01;;;;;;;;;;;;;;;;;;5110967;27;20005;-67
2022/03/24 11:13:28;;;;;;;;;;;;;;;;;;5108665;27;19932;-67
2022/03/24 11:15:55;;;;;;;;;;;;;;;;;;5108590;27;19967;-66
2022/03/24 11:18:22;;;;;;;;;;;;;;;;;;5102387;27;19930;-65
2022/03/24 11:20:50;;;;;;;;;;;;;;;;;;5107764;27;20281;-66
2022/03/24 11:23:17;;;;;;;;;;;;;;;;;;5108014;28;19942;-65
2022/03/24 11:25:44;;;;;;;;;;;;;;;;;;5102227;27;19924;-66
2022/03/24 11:28:14;;;;;;;;;;;;;;;;;;5105851;27;19924;-65
2022/03/24 11:30:41;;;;;;;;;;;;;;;;;;5104892;28;20256;-66
2022/03/24 11:33:09;;;;;;;;;;;;;;;;;;5107434;28;19969;-67
2022/03/24 11:35:36;;;;;;;;;;;;;;;;;;5106041;28;19930;-67
2022/03/24 11:38:03;;;;;;;;;;;;;;;;;;5105322;28;19930;-67
2022/03/24 11:40:30;;;;;;;;;;;;;;;;;;5106654;28;19930;-66
2022/03/24 11:42:59;;;;;;;;;;;;;;;;;;5108149;28;19924;-67
2022/03/24 11:45:26;;;;;;;;;;;;;;;;;;5114287;27;19930;-67
2022/03/24 11:47:53;;;;;;;;;;;;;;;;;;5100602;27;19932;-67
2022/03/24 11:50:20;;;;;;;;;;;;;;;;;;5103888;28;19933;-66
2022/03/24 11:52:48;;;;;;;;;;;;;;;;;;5103401;28;19924;-66
2022/03/24 11:55:15;;;;;;;;;;;;;;;;;;5104708;28;19934;-66
2022/03/24 11:57:42;;;;;;;;;;;;;;;;;;5103743;28;19931;-67
2022/03/24 12:00:09;;;;;;;;;;;;;;;;;;5103022;28;19935;-67
2022/03/24 12:02:36;;;;;;;;;;;;;;;;;;5104212;27;20421;-67
2022/03/24 12:05:03;;;;;;;;;;;;;;;;;;5104475;27;20343;-67
2022/03/24 12:07:30;;;;;;;;;;;;;;;;;;5103634;28;19930;-68
2022/03/24 12:09:57;;;;;;;;;;;;;;;;;;5103917;28;19924;-67
2022/03/24 12:12:24;;;;;;;;;;;;;;;;;;5101153;28;19946;-67
2022/03/24 12:14:54;;;;;;;;;;;;;;;;;;5096243;28;19931;-67
2022/03/24 12:17:21;;;;;;;;;;;;;;;;;;5105219;28;19923;-67
2022/03/24 12:19:49;;;;;;;;;;;;;;;;;;5104188;28;19928;-66
2022/03/24 12:22:16;;;;;;;;;;;;;;;;;;5107143;28;20378;-67
2022/03/24 12:24:45;;;;;;;;;;;;;;;;;;5103613;28;19930;-67
2022/03/24 12:27:12;;;;;;;;;;;;;;;;;;5107887;28;19924;-67
2022/03/24 12:29:39;;;;;;;;;;;;;;;;;;5104025;28;20023;-67
2022/03/24 12:32:06;;;;;;;;;;;;;;;;;;5106263;28;22149;-68
2022/03/24 12:34:33;;;;;;;;;;;;;;;;;;5106100;28;19938;-67
2022/03/24 12:37:01;;;;;;;;;;;;;;;;;;5108277;28;20003;-67
2022/03/24 12:39:28;;;;;;;;;;;;;;;;;;5104221;28;19964;-67
2022/03/24 12:41:55;;;;;;;;;;;;;;;;;;5106583;28;20015;-66
2022/03/24 12:44:22;;;;;;;;;;;;;;;;;;5105643;28;19930;-67
2022/03/24 12:46:48;;;;;;;;;;;;;;;;;;5101858;28;19924;-66
2022/03/24 12:49:16;;;;;;;;;;;;;;;;;;5103071;28;19930;-65
2022/03/24 12:51:43;;;;;;;;;;;;;;;;;;5103297;28;19923;-66
2022/03/24 12:54:10;;;;;;;;;;;;;;;;;;5108439;28;20040;-66
2022/03/24 12:56:37;;;;;;;;;;;;;;;;;;5105506;28;19984;-68
2022/03/24 12:59:06;;;;;;;;;;;;;;;;;;5105132;28;20018;-67
2022/03/24 13:01:33;;;;;;;;;;;;;;;;;;5105195;28;19946;-66
2022/03/24 13:04:00;;;;;;;;;;;;;;;;;;5109807;28;19935;-67
2022/03/24 13:06:27;;;;;;;;;;;;;;;;;;5108820;28;19923;-67
2022/03/24 13:08:54;;;;;;;;;;;;;;;;;;5108217;28;19923;-67
2022/03/24 13:11:21;;;;;;;;;;;;;;;;;;5107111;27;19924;-66
2022/03/24 13:13:48;;;;;;;;;;;;;;;;;;5106441;28;19934;-66
2022/03/24 13:16:16;;;;;;;;;;;;;;;;;;5107531;27;19923;-67
2022/03/24 13:18:43;;;;;;;;;;;;;;;;;;5101920;28;19936;-67
2022/03/24 13:21:10;;;;;;;;;;;;;;;;;;5105082;28;20055;-66
2022/03/24 13:23:37;;;;;;;;;;;;;;;;;;5110110;28;19981;-67
2022/03/24 13:26:04;;;;;;;;;;;;;;;;;;5105974;28;20023;-67
2022/03/24 13:28:34;;;;;;;;;;;;;;;;;;5109181;28;20014;-67
2022/03/24 13:31:02;;;;;;;;;;;;;;;;;;5105487;27;19976;-68
2022/03/24 13:33:29;;;;;;;;;;;;;;;;;;5109758;27;19924;-68
2022/03/24 13:35:56;;;;;;;;;;;;;;;;;;5108321;28;19924;-67
2022/03/24 13:38:24;;;;;;;;;;;;;;;;;;5106930;27;20367;-68
2022/03/24 13:40:53;;;;;;;;;;;;;;;;;;5101065;28;20370;-66
2022/03/24 13:43:21;;;;;;;;;;;;;;;;;;5111241;28;19928;-67
2022/03/24 13:45:49;;;;;;;;;;;;;;;;;;5106398;27;19932;-67
2022/03/24 13:48:18;;;;;;;;;;;;;;;;;;5108264;27;19931;-66
2022/03/24 13:50:45;;;;;;;;;;;;;;;;;;5107708;27;19930;-68
2022/03/24 13:53:12;;;;;;;;;;;;;;;;;;5109964;28;20018;-67
2022/03/24 13:55:40;;;;;;;;;;;;;;;;;;5105366;28;19923;-68
2022/03/24 13:58:08;;;;;;;;;;;;;;;;;;5102510;27;19923;-68
2022/03/24 14:00:35;;;;;;;;;;;;;;;;;;5107350;27;19976;-69
2022/03/24 14:03:02;;;;;;;;;;;;;;;;;;5109555;27;19975;-67
2022/03/24 14:05:29;;;;;;;;;;;;;;;;;;5106769;27;19923;-68
2022/03/24 14:07:56;;;;;;;;;;;;;;;;;;5105899;28;19924;-66
2022/03/24 14:10:26;;;;;;;;;;;;;;;;;;5103241;27;19930;-67
2022/03/24 14:12:53;;;;;;;;;;;;;;;;;;5111096;27;19923;-66
2022/03/24 14:15:21;;;;;;;;;;;;;;;;;;5104768;27;19936;-67
2022/03/24 14:17:48;;;;;;;;;;;;;;;;;;5101632;27;19931;-67
2022/03/24 14:20:15;;;;;;;;;;;;;;;;;;5107508;28;20083;-67
2022/03/24 14:22:42;;;;;;;;;;;;;;;;;;5102899;28;19928;-67
2022/03/24 14:25:09;;;;;;;;;;;;;;;;;;5105211;28;20022;-66
2022/03/24 14:27:36;;;;;;;;;;;;;;;;;;5107132;27;19930;-66
2022/03/24 14:30:03;;;;;;;;;;;;;;;;;;5105552;27;19923;-66
2022/03/24 14:32:31;;;;;;;;;;;;;;;;;;5106420;28;19931;-67
2022/03/24 14:34:58;;;;;;;;;;;;;;;;;;5103051;28;20031;-66
2022/03/24 14:37:25;;;;;;;;;;;;;;;;;;5105400;28;19971;-66
2022/03/24 14:39:52;;;;;;;;;;;;;;;;;;5103806;27;19935;-66
2022/03/24 14:42:19;;;;;;;;;;;;;;;;;;5102833;27;19923;-66
2022/03/24 14:44:47;;;;;;;;;;;;;;;;;;5108489;27;19934;-66
2022/03/24 14:47:16;;;;;;;;;;;;;;;;;;5100373;28;20652;-68
2022/03/24 14:49:43;;;;;;;;;;;;;;;;;;5095607;28;20382;-66
2022/03/24 14:52:10;;;;;;;;;;;;;;;;;;5103605;28;20397;-66
2022/03/24 14:54:37;;;;;;;;;;;;;;;;;;5101065;28;19978;-66
2022/03/24 14:57:04;;;;;;;;;;;;;;;;;;5099426;27;20314;-67
2022/03/24 14:59:31;;;;;;;;;;;;;;;;;;5100903;27;20023;-64
2022/03/24 15:01:59;;;;;;;;;;;;;;;;;;5104273;27;20389;-66
2022/03/24 15:04:26;;;;;;;;;;;;;;;;;;5106314;27;19939;-67
2022/03/24 15:06:53;;;;;;;;;;;;;;;;;;5106375;28;19924;-66
2022/03/24 15:09:20;;;;;;;;;;;;;;;;;;5104232;28;19924;-68
2022/03/24 15:11:47;;;;;;;;;;;;;;;;;;5103145;28;19923;-66
2022/03/24 15:16:58;;;;;;;;;;;;;;;;;;5095948;27;19931;-67
2022/03/24 15:19:25;;;;;;;;;;;;;;;;;;5099716;28;19939;-67
2022/03/24 15:21:52;;;;;;;;;;;;;;;;;;5087020;28;19967;-67
2022/03/24 15:24:19;;;;;;;;;;;;;;;;;;5105016;28;19924;-67
2022/03/24 15:26:46;;;;;;;;;;;;;;;;;;5099188;28;19930;-67
2022/03/24 15:29:13;;;;;;;;;;;;;;;;;;5102304;27;19978;-66
2022/03/24 15:31:46;;;;;;;;;;;;;;;;;;5102835;28;20392;-67
2022/03/24 15:34:18;;;;;;;;;;;;;;;;;;5101691;28;19931;-67
2022/03/24 15:36:46;;;;;;;;;;;;;;;;;;5100269;28;20010;-66
2022/03/24 15:39:13;;;;;;;;;;;;;;;;;;5105424;28;19990;-66
2022/03/24 15:41:40;;;;;;;;;;;;;;;;;;5103572;28;19947;-67
2022/03/24 15:44:09;;;;;;;;;;;;;;;;;;5102185;28;19975;-66
2022/03/24 15:46:36;;;;;;;;;;;;;;;;;;5105360;28;19959;-67
2022/03/24 15:49:03;;;;;;;;;;;;;;;;;;5096158;28;19928;-67
2022/03/24 15:51:30;;;;;;;;;;;;;;;;;;5098545;27;19923;-67
2022/03/24 15:53:57;;;;;;;;;;;;;;;;;;5102043;28;19923;-67
2022/03/24 15:56:24;;;;;;;;;;;;;;;;;;5100760;28;20015;-67
2022/03/24 15:58:51;;;;;;;;;;;;;;;;;;5101300;28;19942;-68
2022/03/24 16:01:18;;;;;;;;;;;;;;;;;;5095198;28;19979;-68
2022/03/24 16:03:45;;;;;;;;;;;;;;;;;;5096634;28;19996;-68
2022/03/24 16:06:13;;;;;;;;;;;;;;;;;;5093212;28;19924;-66
2022/03/24 16:08:40;;;;;;;;;;;;;;;;;;5098058;27;19932;-67
2022/03/24 16:11:08;;;;;;;;;;;;;;;;;;5103367;27;20005;-68
2022/03/24 16:13:36;;;;;;;;;;;;;;;;;;5103661;28;19997;-69
2022/03/24 16:16:06;;;;;;;;;;;;;;;;;;5104708;28;19928;-68
2022/03/24 16:18:46;;;;;;;;;;;;;;;;;;5103740;28;20436;-68
2022/03/24 16:21:21;;;;;;;;;;;;;;;;;;5099226;28;19930;-69
2022/03/24 16:24:00;;;;;;;;;;;;;;;;;;5102684;28;19935;-67
2022/03/24 16:26:38;;;;;;;;;;;;;;;;;;5094969;28;20018;-68
2022/03/24 16:29:07;;;;;;;;;;;;;;;;;;5103637;28;19931;-67
2022/03/24 16:31:36;;;;;;;;;;;;;;;;;;5098606;28;19955;-67
2022/03/24 16:34:06;;;;;;;;;;;;;;;;;;5102896;28;19931;-68
2022/03/24 16:36:35;;;;;;;;;;;;;;;;;;5101895;28;19924;-68
2022/03/24 16:39:02;;;;;;;;;;;;;;;;;;5103274;28;19927;-68